RJAW/IWO METAR and TAF weather

Enter ICAO airport designator
Station Type Date Time Source
RJAW METAR 2023/01/29 18:00 UTC NOAA

RJAW 291800Z 04006KT 9999 -SHRA SCT010 BKN015 14/12 Q1017 RMK 4CU010 7CU015 A3004 WIND BY EQPT/25


Station Type Date Time Source
RJAW Decoded METAR 2023/01/29 18:00 UTC NOAA

Iwojima, Japan (RJAW) 24-47N 141-19E 116M
Jan 29, 2023 - 01:00 PM EST / 2023.01.29 1800 UTC
Wind: from the NE (040 degrees) at 7 MPH (6 KT):0
Visibility: greater than 7 mile(s):0
Sky conditions: mostly cloudy
Weather: light rain showers
Temperature: 57 F (14 C)
Dew Point: 53 F (12 C)
Relative Humidity: 87%
Pressure (altimeter): 30.03 in. Hg (1017 hPa)
ob: RJAW 291800Z 04006KT 9999 -SHRA SCT010 BKN015 14/12 Q1017 RMK 4CU010 7CU015 A3004 WIND BY EQPT/25
cycle: 18

Station Type Date Time Source
RJAW TAF UTC NOAA

Error!

Example: see airport list